Time;durP1;ratioP1;P1;durP2;ratioP2;P2;SDS_P1;SDS_P2;PMS_P1;PMS_P2;Temp;Humidity;BMP_temperature;BMP_pressure;BME280_temperature;BME280_humidity;BME280_pressure;Samples;Min_cycle;Max_cycle;Signal;HPM_P1;HPM_P2
2023/06/04 00:00:17;;;;;;;2.75;1.00;;;16.00;87.60;;;;;;4977610;28;20070;-70
2023/06/04 00:02:42;;;;;;;1.65;0.88;;;15.90;88.40;;;;;;4977215;28;20054;-70
2023/06/04 00:05:08;;;;;;;1.90;1.05;;;15.90;88.20;;;;;;4977365;28;20073;-70
2023/06/04 00:07:34;;;;;;;2.78;0.95;;;15.80;89.30;;;;;;4980488;28;20170;-70
2023/06/04 00:10:00;;;;;;;2.35;1.20;;;15.90;88.80;;;;;;4981035;28;20023;-70
2023/06/04 00:12:25;;;;;;;3.55;1.00;;;15.90;89.20;;;;;;4981466;28;20023;-70
2023/06/04 00:14:51;;;;;;;3.65;1.23;;;16.00;89.20;;;;;;4981033;28;20019;-70
2023/06/04 00:17:16;;;;;;;3.00;1.05;;;15.90;89.70;;;;;;4981382;28;20026;-69
2023/06/04 00:19:42;;;;;;;3.20;1.05;;;15.80;90.00;;;;;;4980837;28;20033;-69
2023/06/04 00:22:07;;;;;;;3.03;1.17;;;15.70;89.50;;;;;;4981022;28;20018;-69
2023/06/04 00:24:35;;;;;;;5.80;0.98;;;15.70;90.00;;;;;;4980478;28;20027;-70
2023/06/04 00:27:00;;;;;;;2.05;0.98;;;15.70;90.00;;;;;;4980693;28;20074;-69
2023/06/04 00:29:26;;;;;;;3.88;1.40;;;15.60;90.30;;;;;;4980313;28;20021;-69
2023/06/04 00:31:52;;;;;;;5.93;1.30;;;15.60;90.20;;;;;;4980332;28;20034;-69
2023/06/04 00:34:18;;;;;;;1.98;1.20;;;15.30;90.30;;;;;;5020875;22;20039;-68
2023/06/04 00:36:45;;;;;;;2.67;1.27;;;15.30;90.40;;;;;;5000751;28;20046;-68
2023/06/04 00:39:10;;;;;;;1.90;1.00;;;15.40;90.80;;;;;;5000831;28;20098;-68
2023/06/04 00:41:36;;;;;;;4.50;1.40;;;15.20;90.60;;;;;;4999599;28;20058;-68
2023/06/04 00:44:06;;;;;;;4.20;1.40;;;15.10;90.90;;;;;;5000425;28;20101;-68
2023/06/04 00:46:31;;;;;;;5.72;1.40;;;15.30;91.00;;;;;;5000483;28;20026;-68
2023/06/04 00:48:57;;;;;;;4.70;1.23;;;15.20;91.00;;;;;;4999393;28;20118;-68
2023/06/04 00:51:23;;;;;;;8.95;1.20;;;15.20;91.30;;;;;;5000308;28;20058;-68
2023/06/04 00:53:52;;;;;;;2.15;1.27;;;15.20;91.30;;;;;;4999396;28;20026;-69
2023/06/04 00:56:18;;;;;;;2.03;0.98;;;15.20;91.20;;;;;;5002661;28;20096;-68
2023/06/04 00:58:46;;;;;;;3.58;1.42;;;15.20;91.60;;;;;;4999692;28;20034;-67
2023/06/04 01:01:23;;;;;;;1.92;0.88;;;15.20;91.60;;;;;;5000011;28;20037;-67
2023/06/04 01:03:52;;;;;;;1.10;0.82;;;15.00;91.70;;;;;;4999216;28;20026;-67
2023/06/04 01:06:24;;;;;;;2.15;1.10;;;14.90;91.90;;;;;;5000044;28;20030;-67
2023/06/04 01:08:54;;;;;;;;;;;14.90;92.10;;;;;;4999941;28;20022;-67
2023/06/04 01:11:31;;;;;;;2.75;0.85;;;14.90;92.50;;;;;;4998992;28;20064;-67
2023/06/04 01:13:57;;;;;;;2.47;1.02;;;14.90;92.20;;;;;;4999537;28;20026;-67
2023/06/04 01:16:23;;;;;;;7.55;1.10;;;14.80;92.40;;;;;;4998977;28;20038;-68
2023/06/04 01:18:51;;;;;;;7.30;1.25;;;14.70;92.30;;;;;;4998455;28;20077;-67
2023/06/04 01:21:18;;;;;;;4.13;1.00;;;14.70;92.70;;;;;;4999609;28;20057;-67
2023/06/04 01:24:00;;;;;;;2.22;1.10;;;14.80;93.70;;;;;;4999397;28;20058;-67
2023/06/04 01:26:31;;;;;;;3.53;1.50;;;14.70;92.80;;;;;;4999704;28;20113;-66
2023/06/04 01:28:59;;;;;;;2.67;1.15;;;14.60;93.20;;;;;;4999841;28;20026;-67
2023/06/04 01:31:25;;;;;;;3.00;1.30;;;14.80;93.40;;;;;;4998948;28;20034;-69
2023/06/04 01:34:00;;;;;;;3.90;1.02;;;14.80;93.00;;;;;;4999729;28;20034;-70
2023/06/04 01:36:26;;;;;;;4.68;1.17;;;14.90;92.80;;;;;;4998689;28;20026;-70
2023/06/04 01:38:51;;;;;;;1.98;1.05;;;14.80;92.90;;;;;;4999472;28;20023;-70
2023/06/04 01:41:17;;;;;;;2.60;1.20;;;14.70;92.60;;;;;;4999568;28;20030;-69
2023/06/04 01:43:42;;;;;;;3.30;1.10;;;14.70;93.00;;;;;;4998490;28;20121;-69
2023/06/04 01:46:08;;;;;;;2.00;1.17;;;14.80;93.10;;;;;;4998503;28;20033;-69
2023/06/04 01:48:33;;;;;;;3.97;1.33;;;14.70;93.00;;;;;;4998775;28;20026;-69
2023/06/04 01:51:00;;;;;;;5.35;0.88;;;14.70;93.50;;;;;;4998500;28;20023;-69
2023/06/04 01:53:25;;;;;;;2.15;0.93;;;14.70;93.40;;;;;;4999430;28;20022;-69
2023/06/04 01:55:52;;;;;;;3.47;1.10;;;14.40;93.70;;;;;;4998519;28;20225;-69
2023/06/04 01:58:22;;;;;;;3.00;1.00;;;14.20;93.90;;;;;;4999009;28;20014;-69
2023/06/04 02:00:49;;;;;;;2.67;1.08;;;14.20;94.20;;;;;;4998301;28;20041;-69
2023/06/04 02:03:15;;;;;;;2.92;1.20;;;14.20;94.20;;;;;;4998904;28;20101;-69
2023/06/04 02:05:40;;;;;;;4.13;0.90;;;14.10;94.50;;;;;;4998830;28;20077;-69
2023/06/04 02:08:06;;;;;;;1.55;1.00;;;14.20;94.40;;;;;;4999290;28;20099;-70
2023/06/04 02:10:32;;;;;;;5.38;1.23;;;14.40;94.30;;;;;;4999044;28;20022;-69
2023/06/04 02:12:59;;;;;;;1.73;0.90;;;14.20;94.40;;;;;;4997883;28;20022;-70
2023/06/04 02:15:26;;;;;;;2.67;1.10;;;14.30;94.20;;;;;;4998098;28;20026;-69
2023/06/04 02:17:58;;;;;;;2.53;1.63;;;14.00;94.40;;;;;;4997827;28;20023;-69
2023/06/04 02:20:23;;;;;;;1.52;1.10;;;14.20;95.20;;;;;;4999166;28;20026;-69
2023/06/04 02:22:49;;;;;;;2.38;0.90;;;14.00;94.60;;;;;;4997852;28;20022;-69
2023/06/04 02:25:15;;;;;;;1.63;0.82;;;14.00;95.20;;;;;;4997704;28;20033;-69
2023/06/04 02:27:40;;;;;;;1.75;1.20;;;14.10;94.90;;;;;;4998015;28;20027;-69
2023/06/04 02:30:07;;;;;;;4.60;1.00;;;14.10;95.00;;;;;;4996953;28;20034;-70
2023/06/04 02:32:33;;;;;;;1.70;0.75;;;14.10;95.40;;;;;;4997497;28;20026;-69
2023/06/04 02:34:59;;;;;;;6.43;1.25;;;14.20;95.30;;;;;;4999015;28;20030;-69
2023/06/04 02:37:25;;;;;;;6.35;1.20;;;14.10;95.40;;;;;;4998358;28;20023;-69
2023/06/04 02:39:50;;;;;;;1.33;0.80;;;14.10;95.40;;;;;;4997443;28;20022;-69
2023/06/04 02:42:16;;;;;;;2.45;1.02;;;14.00;95.60;;;;;;4997374;28;20052;-70
2023/06/04 02:44:41;;;;;;;2.63;1.20;;;14.10;95.90;;;;;;4997363;28;20028;-69
2023/06/04 02:47:07;;;;;;;2.25;0.88;;;14.10;95.70;;;;;;4997731;28;20058;-70
2023/06/04 02:49:32;;;;;;;1.83;0.80;;;14.00;95.90;;;;;;4997565;28;20113;-69
2023/06/04 02:51:58;;;;;;;2.38;1.15;;;13.80;95.80;;;;;;4998406;28;20031;-69
2023/06/04 02:54:23;;;;;;;3.75;1.08;;;14.00;96.10;;;;;;4997364;28;20022;-69
2023/06/04 02:56:49;;;;;;;1.33;0.80;;;14.20;96.00;;;;;;4997349;28;20029;-69
2023/06/04 02:59:15;;;;;;;2.28;0.90;;;14.10;96.30;;;;;;4997144;28;20049;-69
2023/06/04 03:01:41;;;;;;;2.63;0.80;;;14.10;96.40;;;;;;4997348;28;20034;-69
2023/06/04 03:04:09;;;;;;;1.27;0.82;;;14.00;96.10;;;;;;4997406;28;20030;-69
2023/06/04 03:06:38;;;;;;;6.18;1.02;;;13.80;96.30;;;;;;4998234;28;20019;-69
2023/06/04 03:09:04;;;;;;;2.05;1.05;;;13.70;97.00;;;;;;4997869;28;20025;-69
2023/06/04 03:11:29;;;;;;;3.70;0.90;;;13.70;96.90;;;;;;4997433;28;20058;-69
2023/06/04 03:13:55;;;;;;;3.63;1.20;;;13.50;97.10;;;;;;4997174;28;20022;-69
2023/06/04 03:16:21;;;;;;;2.78;0.90;;;13.60;97.10;;;;;;4997038;28;20026;-69
2023/06/04 03:18:47;;;;;;;2.13;1.20;;;13.70;97.20;;;;;;4997653;28;20037;-69
2023/06/04 03:21:13;;;;;;;1.00;0.90;;;13.80;96.90;;;;;;4997317;28;20022;-69
2023/06/04 03:23:39;;;;;;;1.88;1.10;;;13.80;97.20;;;;;;4997824;28;20084;-69
2023/06/04 03:26:05;;;;;;;0.95;0.73;;;13.70;96.90;;;;;;4998071;28;20030;-69
2023/06/04 03:28:32;;;;;;;2.42;1.00;;;13.70;97.10;;;;;;4997692;28;20153;-69
2023/06/04 03:30:58;;;;;;;5.60;0.80;;;13.50;97.30;;;;;;4996904;28;20041;-70
2023/06/04 03:33:23;;;;;;;2.40;1.27;;;13.70;97.20;;;;;;4996673;28;20038;-70
2023/06/04 03:35:50;;;;;;;2.80;1.25;;;13.70;97.30;;;;;;4997654;28;20061;-69
2023/06/04 03:38:16;;;;;;;2.80;1.00;;;13.50;97.70;;;;;;4996767;28;20029;-70
2023/06/04 03:40:42;;;;;;;3.80;1.10;;;13.60;97.50;;;;;;4996618;28;20026;-69
2023/06/04 03:43:08;;;;;;;6.88;1.25;;;13.60;97.30;;;;;;5001058;28;20026;-69
2023/06/04 03:45:34;;;;;;;1.90;0.90;;;13.70;97.30;;;;;;5000714;28;20088;-69
2023/06/04 03:47:59;;;;;;;3.72;1.30;;;13.50;97.20;;;;;;5000985;28;20026;-69
2023/06/04 03:50:25;;;;;;;1.13;0.80;;;13.60;97.40;;;;;;5001039;28;20034;-69
2023/06/04 03:52:51;;;;;;;1.58;1.27;;;13.50;97.40;;;;;;5000890;28;20109;-69
2023/06/04 03:55:16;;;;;;;2.33;1.10;;;13.50;97.70;;;;;;5000483;28;20022;-70
2023/06/04 03:57:42;;;;;;;6.88;1.20;;;13.40;97.70;;;;;;5000692;28;20058;-70
2023/06/04 04:00:13;;;;;;;2.42;0.90;;;13.50;97.60;;;;;;5000652;28;20026;-70
2023/06/04 04:02:42;;;;;;;2.70;1.95;;;13.20;97.90;;;;;;5001476;28;20034;-69
2023/06/04 04:05:09;;;;;;;5.35;1.65;;;13.30;98.30;;;;;;5000350;28;20031;-70
2023/06/04 04:07:35;;;;;;;2.72;0.95;;;13.50;98.40;;;;;;5000537;28;20031;-69
2023/06/04 04:10:00;;;;;;;1.17;0.88;;;13.60;98.40;;;;;;5000132;28;20027;-69
2023/06/04 04:12:26;;;;;;;3.72;1.33;;;13.60;98.30;;;;;;5000115;28;20029;-69
2023/06/04 04:14:51;;;;;;;2.35;1.05;;;13.60;98.10;;;;;;5000028;28;20028;-70
2023/06/04 04:17:17;;;;;;;4.65;1.40;;;13.80;98.50;;;;;;5000617;28;20033;-69
2023/06/04 04:19:42;;;;;;;3.90;1.20;;;13.90;98.00;;;;;;5000204;28;20105;-69
2023/06/04 04:22:10;;;;;;;2.22;1.00;;;13.60;97.40;;;;;;4999932;28;20045;-69
2023/06/04 04:24:37;;;;;;;2.72;1.23;;;13.30;97.90;;;;;;4999972;28;20141;-69
2023/06/04 04:27:04;;;;;;;4.13;1.30;;;13.40;98.20;;;;;;5000288;28;20026;-70
2023/06/04 04:29:32;;;;;;;1.42;1.10;;;13.60;98.50;;;;;;5000906;28;20045;-70
2023/06/04 04:32:02;;;;;;;5.90;1.15;;;13.40;98.30;;;;;;5000814;28;20026;-70
2023/06/04 04:34:28;;;;;;;1.60;1.23;;;13.50;98.40;;;;;;5000071;28;20034;-69
2023/06/04 04:36:54;;;;;;;4.55;1.38;;;13.80;98.60;;;;;;5000171;28;20022;-69
2023/06/04 04:39:24;;;;;;;3.38;1.00;;;13.80;98.40;;;;;;5000785;28;20090;-69
2023/06/04 04:41:49;;;;;;;1.70;1.00;;;13.80;98.10;;;;;;4999614;28;20030;-70
2023/06/04 04:44:15;;;;;;;4.10;1.00;;;13.80;98.20;;;;;;4999633;28;20162;-69
2023/06/04 04:46:41;;;;;;;8.40;1.15;;;13.60;98.40;;;;;;4999863;28;20172;-69
2023/06/04 04:49:06;;;;;;;1.70;1.00;;;13.60;98.70;;;;;;5000417;28;20027;-69
2023/06/04 04:51:32;;;;;;;4.18;1.02;;;13.70;99.00;;;;;;5000439;28;20027;-70
2023/06/04 04:54:00;;;;;;;3.72;1.10;;;13.80;98.50;;;;;;4998983;28;20086;-70
2023/06/04 04:56:26;;;;;;;8.25;1.83;;;13.70;98.70;;;;;;5000347;28;20113;-69
2023/06/04 04:58:52;;;;;;;4.32;1.33;;;13.70;98.80;;;;;;5000460;28;20044;-69
2023/06/04 05:01:17;;;;;;;3.50;1.45;;;13.90;99.10;;;;;;4999256;28;20026;-69
2023/06/04 05:03:43;;;;;;;2.53;1.20;;;13.90;98.60;;;;;;4999090;28;20022;-69
2023/06/04 05:06:09;;;;;;;4.18;1.92;;;13.70;98.70;;;;;;4999218;28;20018;-69
2023/06/04 05:08:35;;;;;;;3.65;1.30;;;13.90;98.90;;;;;;4999925;28;20022;-69
2023/06/04 05:11:00;;;;;;;1.50;0.90;;;13.90;99.20;;;;;;4999102;28;20053;-69
2023/06/04 05:13:26;;;;;;;3.53;1.15;;;14.10;98.90;;;;;;4999921;28;20025;-69
2023/06/04 05:15:52;;;;;;;2.17;1.10;;;14.10;98.90;;;;;;4999067;28;20029;-69
2023/06/04 05:18:20;;;;;;;4.57;1.33;;;14.10;98.90;;;;;;4998958;28;20022;-69
2023/06/04 05:20:46;;;;;;;2.72;1.23;;;14.30;99.10;;;;;;4999658;28;20053;-69
2023/06/04 05:23:12;;;;;;;2.03;1.08;;;14.40;98.60;;;;;;4999643;28;20034;-69
2023/06/04 05:25:38;;;;;;;1.80;1.00;;;14.40;98.80;;;;;;4998974;28;20049;-69
2023/06/04 05:28:05;;;;;;;1.92;1.40;;;14.60;98.90;;;;;;4998791;28;20033;-69
2023/06/04 05:30:31;;;;;;;7.30;1.25;;;14.50;98.80;;;;;;4999578;28;20050;-69
2023/06/04 05:32:57;;;;;;;4.22;1.40;;;14.60;99.20;;;;;;4999006;28;20034;-70
2023/06/04 05:35:22;;;;;;;3.03;1.33;;;14.60;99.10;;;;;;4998659;28;20081;-69
2023/06/04 05:37:53;;;;;;;1.35;1.13;;;14.70;99.00;;;;;;4999017;28;20025;-70
2023/06/04 05:40:20;;;;;;;4.15;1.67;;;14.80;99.40;;;;;;4998565;28;20085;-69
2023/06/04 05:42:47;;;;;;;2.60;1.40;;;14.90;99.60;;;;;;4999272;28;20041;-69
2023/06/04 05:45:12;;;;;;;3.47;1.30;;;15.00;99.20;;;;;;4999465;28;20038;-70
2023/06/04 05:47:38;;;;;;;2.40;1.30;;;14.90;99.30;;;;;;4998227;28;20116;-70
2023/06/04 05:50:05;;;;;;;3.75;1.65;;;15.00;99.40;;;;;;4998335;28;20033;-70
2023/06/04 05:52:32;;;;;;;7.35;1.77;;;14.90;99.50;;;;;;4999474;28;20030;-70
2023/06/04 05:54:57;;;;;;;4.55;1.60;;;15.00;99.80;;;;;;4998640;28;20037;-69
2023/06/04 05:57:23;;;;;;;3.60;1.40;;;15.10;99.50;;;;;;4999063;28;20022;-70
2023/06/04 05:59:48;;;;;;;3.50;1.27;;;15.10;99.60;;;;;;4998583;28;20027;-69
2023/06/04 06:02:14;;;;;;;1.83;1.40;;;15.30;99.80;;;;;;4999378;28;20022;-70
2023/06/04 06:04:40;;;;;;;3.03;1.40;;;15.30;99.30;;;;;;4997938;28;20018;-69
2023/06/04 06:07:05;;;;;;;5.25;1.40;;;15.40;99.50;;;;;;4999197;28;20026;-70
2023/06/04 06:09:31;;;;;;;3.83;1.65;;;15.40;99.40;;;;;;4998767;28;20026;-70
2023/06/04 06:11:58;;;;;;;3.65;1.55;;;15.50;99.70;;;;;;4998176;28;20026;-70
2023/06/04 06:14:23;;;;;;;6.43;1.80;;;15.60;99.40;;;;;;4998234;28;20018;-70
2023/06/04 06:16:49;;;;;;;3.47;1.55;;;15.60;99.20;;;;;;4998144;28;20026;-70
2023/06/04 06:19:15;;;;;;;3.13;1.70;;;15.60;99.30;;;;;;4997923;28;20027;-70
2023/06/04 06:21:40;;;;;;;5.30;1.40;;;15.70;99.10;;;;;;4998127;28;20023;-69
2023/06/04 06:24:06;;;;;;;4.32;1.40;;;15.70;99.50;;;;;;4997698;28;20022;-70
2023/06/04 06:26:31;;;;;;;7.65;1.50;;;15.70;99.10;;;;;;4997761;28;20093;-70
2023/06/04 06:28:57;;;;;;;4.00;1.45;;;15.80;99.70;;;;;;4998574;28;20076;-70
2023/06/04 06:31:23;;;;;;;3.72;1.50;;;15.90;99.80;;;;;;4997636;28;20030;-70
2023/06/04 06:33:48;;;;;;;6.47;1.48;;;15.90;99.80;;;;;;5022281;22;20121;-69
2023/06/04 06:36:14;;;;;;;8.32;1.30;;;15.90;99.90;;;;;;4997603;28;20105;-70
2023/06/04 06:38:40;;;;;;;2.50;1.40;;;16.10;99.90;;;;;;4998951;28;20037;-70
2023/06/04 06:41:06;;;;;;;2.53;1.52;;;16.10;99.90;;;;;;4998334;28;20022;-70
2023/06/04 06:43:33;;;;;;;6.30;1.70;;;16.20;99.90;;;;;;4997488;28;20026;-70
2023/06/04 06:45:58;;;;;;;2.03;1.40;;;16.30;99.90;;;;;;4998298;28;20048;-70
2023/06/04 06:48:24;;;;;;;2.25;1.17;;;16.40;99.60;;;;;;4997385;28;20026;-70
2023/06/04 06:50:49;;;;;;;8.75;1.30;;;16.40;99.00;;;;;;4998178;28;20026;-70
2023/06/04 06:53:15;;;;;;;1.75;1.33;;;16.60;99.00;;;;;;4997228;28;20022;-70
2023/06/04 06:55:40;;;;;;;2.10;1.40;;;16.50;97.80;;;;;;4997066;28;20121;-70
2023/06/04 06:58:06;;;;;;;4.43;1.63;;;16.60;98.70;;;;;;4997569;28;20053;-70
2023/06/04 07:00:31;;;;;;;4.35;1.38;;;16.60;99.20;;;;;;4997082;28;20113;-70
2023/06/04 07:02:57;;;;;;;6.25;1.85;;;16.70;98.30;;;;;;4998001;28;20034;-70
2023/06/04 07:05:22;;;;;;;5.63;1.40;;;16.80;98.90;;;;;;4998623;28;20027;-70
2023/06/04 07:07:48;;;;;;;2.97;1.33;;;16.80;98.20;;;;;;4997281;28;20030;-70
2023/06/04 07:10:14;;;;;;;3.70;1.48;;;16.90;97.60;;;;;;4997755;28;20030;-70
2023/06/04 07:12:40;;;;;;;3.15;1.30;;;17.00;98.00;;;;;;4996977;28;20094;-70
2023/06/04 07:15:06;;;;;;;5.30;1.65;;;17.20;98.00;;;;;;4997607;28;20022;-70
2023/06/04 07:17:32;;;;;;;3.50;1.20;;;17.20;97.60;;;;;;4997281;28;20077;-70
2023/06/04 07:19:58;;;;;;;4.10;1.50;;;17.30;97.50;;;;;;4996851;28;20023;-70
2023/06/04 07:22:23;;;;;;;2.42;1.20;;;17.30;97.30;;;;;;4996935;28;20032;-70
2023/06/04 07:24:49;;;;;;;2.03;1.58;;;17.40;96.90;;;;;;4996740;28;20026;-70
2023/06/04 07:27:15;;;;;;;4.45;2.10;;;17.50;97.10;;;;;;4996818;28;20113;-70
2023/06/04 07:29:43;;;;;;;2.10;1.05;;;17.60;97.40;;;;;;4996839;28;20080;-70
2023/06/04 07:32:09;;;;;;;3.30;1.50;;;17.80;97.10;;;;;;4997575;28;20030;-70
2023/06/04 07:34:36;;;;;;;4.70;1.80;;;17.90;96.80;;;;;;4996967;28;20173;-70
2023/06/04 07:37:02;;;;;;;2.60;1.60;;;18.00;96.60;;;;;;4996552;28;20022;-70
2023/06/04 07:39:28;;;;;;;2.78;1.60;;;18.00;96.60;;;;;;4996690;28;20023;-70
2023/06/04 07:41:53;;;;;;;6.40;1.88;;;18.00;97.30;;;;;;4997790;28;20037;-70
2023/06/04 07:44:19;;;;;;;5.45;1.35;;;18.10;97.60;;;;;;4997420;28;20108;-70
2023/06/04 07:46:45;;;;;;;1.92;1.48;;;18.20;96.70;;;;;;4997029;28;20121;-70
2023/06/04 07:49:10;;;;;;;3.22;1.80;;;18.20;97.00;;;;;;4996596;28;20023;-71
2023/06/04 07:51:37;;;;;;;1.98;1.25;;;18.30;97.10;;;;;;4996873;28;20033;-71
2023/06/04 07:54:02;;;;;;;2.92;1.30;;;18.40;96.40;;;;;;4996507;28;20029;-71
2023/06/04 07:56:28;;;;;;;4.47;1.40;;;18.50;96.10;;;;;;4996503;28;20023;-71
2023/06/04 07:58:53;;;;;;;2.60;1.25;;;18.60;93.40;;;;;;4996574;28;20019;-71
2023/06/04 08:01:19;;;;;;;5.15;1.20;;;18.80;94.60;;;;;;4996822;28;20022;-71
2023/06/04 08:03:45;;;;;;;5.00;1.70;;;19.00;94.20;;;;;;4997553;28;20022;-71
2023/06/04 08:06:11;;;;;;;2.15;1.30;;;19.20;93.30;;;;;;4997835;28;20055;-71
2023/06/04 08:08:36;;;;;;;2.85;1.40;;;19.40;92.10;;;;;;4997632;28;20072;-71
2023/06/04 08:11:02;;;;;;;5.35;1.42;;;19.50;92.30;;;;;;4996375;28;20026;-71
2023/06/04 08:13:28;;;;;;;4.57;1.65;;;19.60;92.90;;;;;;4996359;28;20019;-71
2023/06/04 08:15:53;;;;;;;4.93;1.80;;;19.60;91.20;;;;;;4996542;28;20029;-71
2023/06/04 08:18:19;;;;;;;2.08;1.30;;;20.20;89.00;;;;;;4997017;28;20034;-71
2023/06/04 08:20:45;;;;;;;3.65;1.80;;;20.40;88.20;;;;;;4997320;28;20167;-70
2023/06/04 08:23:11;;;;;;;3.92;1.58;;;20.50;88.70;;;;;;4996426;28;20027;-70
2023/06/04 08:25:36;;;;;;;7.13;2.00;;;20.50;86.60;;;;;;4996460;28;20058;-70
2023/06/04 08:28:02;;;;;;;2.65;1.50;;;20.50;84.20;;;;;;4997144;28;20117;-70
2023/06/04 08:30:29;;;;;;;1.55;1.27;;;20.60;84.30;;;;;;5000190;28;20023;-70
2023/06/04 08:32:54;;;;;;;3.25;1.23;;;20.60;87.70;;;;;;5000735;28;20022;-70
2023/06/04 08:35:20;;;;;;;5.53;1.70;;;20.70;87.40;;;;;;5000841;28;20037;-71
2023/06/04 08:37:46;;;;;;;6.93;1.70;;;20.60;85.20;;;;;;5000718;28;20022;-70
2023/06/04 08:40:12;;;;;;;3.80;1.80;;;20.80;84.20;;;;;;4999840;28;20070;-70
2023/06/04 08:42:42;;;;;;;5.65;2.13;;;21.00;83.10;;;;;;4999626;28;20094;-71
2023/06/04 08:45:12;;;;;;;3.72;1.85;;;21.10;81.60;;;;;;4999671;28;20022;-71
2023/06/04 08:47:40;;;;;;;7.97;1.67;;;21.00;81.00;;;;;;5000444;28;20029;-70
2023/06/04 08:50:10;;;;;;;4.50;1.50;;;21.40;80.60;;;;;;4999643;28;20023;-71
2023/06/04 08:52:37;;;;;;;4.25;1.73;;;21.50;79.10;;;;;;4999430;28;20026;-71
2023/06/04 08:55:03;;;;;;;2.42;1.90;;;21.50;80.20;;;;;;4999299;28;20033;-70
2023/06/04 08:57:31;;;;;;;7.10;1.77;;;21.50;79.70;;;;;;5000586;28;20023;-70
2023/06/04 08:59:56;;;;;;;5.68;1.63;;;21.50;79.90;;;;;;4999352;28;20026;-70
2023/06/04 09:02:22;;;;;;;5.75;1.70;;;21.70;77.00;;;;;;4999327;28;20095;-71
2023/06/04 09:04:49;;;;;;;2.97;1.73;;;21.70;77.10;;;;;;5000007;28;20085;-71
2023/06/04 09:07:16;;;;;;;3.38;2.13;;;21.80;78.60;;;;;;4999288;28;20032;-71
2023/06/04 09:09:45;;;;;;;2.45;1.65;;;22.00;77.30;;;;;;5000206;28;20035;-71
2023/06/04 09:12:17;;;;;;;7.25;1.70;;;22.00;76.80;;;;;;4998995;28;20027;-71
2023/06/04 09:14:42;;;;;;;2.33;1.75;;;22.10;77.20;;;;;;4999527;28;20041;-71
2023/06/04 09:17:08;;;;;;;3.85;1.70;;;22.30;75.90;;;;;;4999026;28;20022;-71
2023/06/04 09:19:33;;;;;;;2.67;1.88;;;22.00;71.90;;;;;;4999994;28;20022;-71
2023/06/04 09:22:03;;;;;;;4.45;2.25;;;21.70;70.60;;;;;;4999301;28;20109;-71
2023/06/04 09:24:43;;;;;;;6.22;2.17;;;21.80;73.10;;;;;;4999741;28;20196;-70
2023/06/04 09:27:12;;;;;;;4.75;2.42;;;21.70;74.80;;;;;;4999791;28;20026;-71
2023/06/04 09:29:38;;;;;;;2.88;1.75;;;22.00;76.50;;;;;;4998726;28;20080;-71
2023/06/04 09:32:04;;;;;;;4.40;2.10;;;22.30;71.00;;;;;;4998951;28;20038;-71
2023/06/04 09:34:30;;;;;;;3.88;2.28;;;22.60;72.10;;;;;;4998764;28;20041;-71
2023/06/04 09:36:56;;;;;;;4.03;2.17;;;22.10;68.80;;;;;;4998813;28;20028;-70
2023/06/04 09:39:23;;;;;;;3.20;1.92;;;21.90;70.30;;;;;;4999381;28;20022;-70
2023/06/04 09:42:02;;;;;;;3.00;1.92;;;21.90;67.50;;;;;;4999452;28;20118;-71
2023/06/04 09:44:29;;;;;;;3.78;1.98;;;22.00;68.30;;;;;;4998688;28;20022;-71
2023/06/04 09:46:58;;;;;;;5.13;2.20;;;22.30;70.50;;;;;;4998512;28;20033;-71
2023/06/04 09:49:24;;;;;;;7.70;2.45;;;22.50;69.70;;;;;;4999411;28;20033;-71
2023/06/04 09:51:50;;;;;;;3.00;1.92;;;22.90;68.10;;;;;;4999196;28;20116;-71
2023/06/04 09:54:16;;;;;;;4.50;2.90;;;22.90;68.50;;;;;;4998629;28;20023;-71
2023/06/04 09:56:42;;;;;;;4.68;2.65;;;23.10;68.00;;;;;;4998376;28;20073;-71
2023/06/04 09:59:09;;;;;;;2.90;2.33;;;23.00;68.90;;;;;;4999226;28;20094;-71
2023/06/04 10:01:39;;;;;;;4.32;2.50;;;23.20;65.60;;;;;;4998544;28;20121;-71
2023/06/04 10:04:07;;;;;;;3.28;2.72;;;23.40;67.70;;;;;;4999241;28;20022;-71
2023/06/04 10:06:34;;;;;;;4.32;2.28;;;23.70;66.20;;;;;;4998518;28;20027;-71
2023/06/04 10:09:10;;;;;;;4.35;2.80;;;23.60;66.20;;;;;;4998347;28;20030;-71
2023/06/04 10:11:43;;;;;;;3.30;2.50;;;23.60;66.80;;;;;;4998449;28;20114;-71
2023/06/04 10:14:22;;;;;;;3.13;2.83;;;23.60;68.30;;;;;;4999027;28;20074;-71
2023/06/04 10:16:48;;;;;;;3.50;3.13;;;23.80;64.80;;;;;;4998714;28;20045;-71
2023/06/04 10:19:15;;;;;;;4.80;2.50;;;23.30;65.00;;;;;;4998024;28;20049;-71
2023/06/04 10:21:43;;;;;;;3.40;2.60;;;23.40;66.90;;;;;;4998145;28;20027;-71
2023/06/04 10:24:08;;;;;;;3.28;2.72;;;23.70;64.40;;;;;;4998652;28;20030;-71
2023/06/04 10:26:35;;;;;;;6.18;3.03;;;23.90;64.10;;;;;;4997824;28;20027;-71
2023/06/04 10:29:02;;;;;;;3.17;2.65;;;24.10;63.20;;;;;;4998416;28;20121;-71
2023/06/04 10:31:28;;;;;;;4.72;2.78;;;24.20;63.60;;;;;;4997865;28;20026;-70
2023/06/04 10:33:55;;;;;;;7.78;2.83;;;24.40;62.60;;;;;;4998121;28;20054;-71
2023/06/04 10:36:22;;;;;;;7.70;3.30;;;24.30;63.50;;;;;;4998542;28;20037;-71
2023/06/04 10:38:52;;;;;;;4.55;2.60;;;24.80;65.40;;;;;;4998466;28;20053;-71
2023/06/04 10:41:19;;;;;;;3.25;2.70;;;24.80;61.70;;;;;;4997527;28;20117;-71
2023/06/04 10:43:49;;;;;;;5.32;2.90;;;25.10;62.30;;;;;;4998187;28;20027;-70
2023/06/04 10:46:17;;;;;;;3.77;2.50;;;25.10;62.70;;;;;;4997633;28;20093;-70
2023/06/04 10:48:49;;;;;;;4.15;2.28;;;25.10;60.80;;;;;;4998224;28;20030;-70
2023/06/04 10:51:37;;;;;;;4.72;2.83;;;25.20;60.00;;;;;;4996664;28;20033;-71
2023/06/04 10:54:03;;;;;;;3.22;2.60;;;25.40;62.30;;;;;;4997505;28;20026;-70
2023/06/04 10:56:34;;;;;;;3.10;2.67;;;25.70;60.00;;;;;;4998074;28;20085;-71
2023/06/04 10:59:01;;;;;;;3.92;2.53;;;25.60;60.90;;;;;;4997375;28;20028;-70
2023/06/04 11:01:31;;;;;;;5.18;2.78;;;25.70;62.90;;;;;;4997305;28;20065;-70
2023/06/04 11:03:57;;;;;;;5.07;2.47;;;25.40;60.10;;;;;;4998448;28;20025;-71
2023/06/04 11:06:27;;;;;;;7.28;2.65;;;25.00;60.30;;;;;;4997995;28;20030;-71
2023/06/04 11:09:05;;;;;;;4.38;2.50;;;25.30;60.80;;;;;;4997915;28;20076;-70
2023/06/04 11:11:31;;;;;;;5.80;2.85;;;25.70;62.10;;;;;;4997123;28;20090;-71
2023/06/04 11:14:12;;;;;;;4.60;2.95;;;26.00;59.50;;;;;;4997213;28;20113;-71
2023/06/04 11:16:38;;;;;;;3.65;2.72;;;25.50;59.60;;;;;;4997868;28;20029;-71
2023/06/04 11:19:04;;;;;;;7.85;2.90;;;25.70;60.40;;;;;;4996843;28;20023;-71
2023/06/04 11:21:30;;;;;;;5.47;2.65;;;26.10;60.50;;;;;;4997316;28;20061;-71
2023/06/04 11:23:58;;;;;;;3.55;3.00;;;26.30;58.90;;;;;;4997583;28;20031;-71
2023/06/04 11:26:33;;;;;;;3.95;3.03;;;26.40;59.60;;;;;;4997901;28;20033;-71
2023/06/04 11:29:00;;;;;;;5.45;2.95;;;26.20;60.40;;;;;;4996980;28;20075;-71
2023/06/04 11:31:26;;;;;;;5.70;2.95;;;26.80;60.00;;;;;;4996637;28;20089;-71
2023/06/04 11:33:51;;;;;;;3.75;2.58;;;27.10;57.80;;;;;;4996742;28;20057;-71
2023/06/04 11:36:29;;;;;;;5.75;2.67;;;27.00;57.50;;;;;;4996794;28;20030;-71
2023/06/04 11:38:58;;;;;;;7.05;3.22;;;26.70;56.20;;;;;;4997637;28;20045;-71
2023/06/04 11:41:31;;;;;;;4.68;3.13;;;27.00;59.50;;;;;;4996672;28;20027;-71
2023/06/04 11:43:57;;;;;;;6.03;3.00;;;27.10;57.50;;;;;;4996556;28;20027;-71
2023/06/04 11:46:23;;;;;;;3.85;3.05;;;27.20;57.20;;;;;;4997414;28;20026;-71
2023/06/04 11:48:53;;;;;;;3.15;2.85;;;27.50;60.00;;;;;;4997273;28;20173;-71
2023/06/04 11:51:20;;;;;;;5.18;2.97;;;27.20;55.10;;;;;;4997488;28;20030;-71
2023/06/04 11:53:46;;;;;;;3.92;2.60;;;27.10;55.40;;;;;;4996571;28;20053;-71
2023/06/04 11:56:12;;;;;;;5.32;3.08;;;27.70;56.30;;;;;;4996622;28;20108;-71
2023/06/04 11:58:40;;;;;;;4.10;2.92;;;27.50;55.80;;;;;;4996749;28;20023;-71
2023/06/04 12:01:08;;;;;;;5.22;3.63;;;26.90;55.80;;;;;;4997375;28;20034;-71
2023/06/04 12:03:40;;;;;;;5.20;3.05;;;26.80;55.10;;;;;;4999495;28;20081;-71
2023/06/04 12:06:15;;;;;;;4.25;3.00;;;26.60;54.70;;;;;;5001194;28;20054;-71
2023/06/04 12:08:48;;;;;;;5.70;3.40;;;27.00;57.50;;;;;;5001515;28;20088;-71
2023/06/04 12:11:30;;;;;;;5.65;3.08;;;27.40;56.50;;;;;;5001267;28;20033;-71
2023/06/04 12:13:57;;;;;;;5.63;3.60;;;28.00;56.70;;;;;;5000147;28;20022;-71
2023/06/04 12:16:23;;;;;;;6.20;3.13;;;28.10;53.20;;;;;;5000896;28;20077;-71
2023/06/04 12:18:52;;;;;;;5.40;3.60;;;27.80;54.70;;;;;;5000323;28;20023;-71
2023/06/04 12:21:26;;;;;;;3.78;2.53;;;27.30;54.00;;;;;;5000551;28;20100;-71
2023/06/04 12:24:08;;;;;;;5.07;2.90;;;27.00;54.10;;;;;;5000855;28;20113;-71
2023/06/04 12:26:37;;;;;;;3.78;3.13;;;27.30;55.20;;;;;;4999953;28;20033;-71
2023/06/04 12:29:19;;;;;;;15.93;3.50;;;27.80;55.90;;;;;;4999960;28;20042;-71
2023/06/04 12:31:46;;;;;;;3.63;3.20;;;27.90;55.00;;;;;;5000615;28;20030;-71
2023/06/04 12:34:14;;;;;;;6.28;3.15;;;27.60;53.50;;;;;;5023409;22;20062;-68
2023/06/04 12:36:40;;;;;;;5.35;2.92;;;26.90;54.40;;;;;;5000029;28;20029;-69
2023/06/04 12:39:07;;;;;;;3.88;2.90;;;26.90;54.60;;;;;;5000987;28;20033;-69
2023/06/04 12:41:33;;;;;;;4.50;3.10;;;27.10;55.50;;;;;;4999802;28;20026;-69
2023/06/04 12:44:00;;;;;;;5.72;2.70;;;26.90;56.30;;;;;;4999806;28;20050;-69
2023/06/04 12:46:25;;;;;;;5.82;2.97;;;27.20;55.00;;;;;;5000316;28;20033;-69